Time;durP1;ratioP1;P1;durP2;ratioP2;P2;SDS_P1;SDS_P2;PMS_P1;PMS_P2;Temp;Humidity;BMP_temperature;BMP_pressure;BME280_temperature;BME280_humidity;BME280_pressure;Samples;Min_cycle;Max_cycle;Signal;HPM_P1;HPM_P2
2021/12/24 00:00:06;;;;;;;55.50;49.55;;;;;;;-0.43;56.67;95176.34;5075421;28;20195;-65
2021/12/24 00:02:32;;;;;;;55.65;48.63;;;;;;;-0.43;56.37;95175.53;5074573;28;20201;-65
2021/12/24 00:05:00;;;;;;;37.58;33.58;;;;;;;-0.43;55.24;95162.78;5075381;28;20181;-65
2021/12/24 00:07:27;;;;;;;33.47;30.08;;;;;;;-0.37;54.95;95156.22;5074378;28;20539;-65
2021/12/24 00:09:54;;;;;;;34.28;30.55;;;;;;;-0.33;54.97;95148.34;5075228;28;20205;-65
2021/12/24 00:12:23;;;;;;;32.03;28.73;;;;;;;-0.33;53.93;95151.88;5074424;28;20540;-65
2021/12/24 00:14:54;;;;;;;34.50;30.80;;;;;;;-0.40;54.52;95137.84;5074893;28;20177;-65
2021/12/24 00:17:27;;;;;;;23.27;20.98;;;;;;;-0.35;54.03;95153.25;5075182;28;20184;-65
2021/12/24 00:20:09;;;;;;;24.55;22.13;;;;;;;-0.40;53.92;95137.84;5075099;28;20254;-65
2021/12/24 00:36:26;;;;;;;17.42;15.82;;;;;;;-0.13;52.85;95158.25;5066596;28;20197;-65
2021/12/24 00:38:54;;;;;;;17.48;15.82;;;;;;;-0.13;53.37;95164.47;5074016;28;20197;-65
2021/12/24 00:41:21;;;;;;;17.85;16.05;;;;;;;-0.18;52.61;95150.97;5074910;28;20181;-65
2021/12/24 00:43:48;;;;;;;17.33;15.63;;;;;;;-0.15;53.00;95153.09;5075368;28;20200;-65
2021/12/24 00:46:15;;;;;;;16.90;15.32;;;;;;;-0.16;53.44;95151.47;5074819;28;20223;-65
2021/12/24 00:48:42;;;;;;;15.93;14.48;;;;;;;-0.17;52.82;95147.16;5074601;28;20208;-65
2021/12/24 00:51:20;;;;;;;16.55;15.05;;;;;;;-0.14;52.70;95138.47;5074783;28;20185;-65
2021/12/24 00:56:32;;;;;;;18.33;16.63;;;;;;;-0.08;53.01;95120.22;5074603;28;20185;-65
2021/12/24 00:58:59;;;;;;;18.50;16.80;;;;;;;-0.11;53.28;95118.91;5074796;28;20196;-65
2021/12/24 01:01:26;;;;;;;17.58;16.05;;;;;;;-0.12;52.87;95116.47;5074907;28;20197;-65
2021/12/24 01:03:52;;;;;;;20.55;18.50;;;;;;;-0.16;53.25;95118.94;5074827;28;20196;-65
2021/12/24 01:06:19;;;;;;;19.15;17.42;;;;;;;-0.19;53.18;95111.38;5074684;28;20185;-65
2021/12/24 01:08:46;;;;;;;19.88;18.08;;;;;;;-0.18;53.22;95115.72;5074613;28;20216;-65
2021/12/24 01:11:13;;;;;;;19.40;17.60;;;;;;;-0.18;53.23;95120.31;5073710;28;20196;-65
2021/12/24 01:13:41;;;;;;;19.83;18.02;;;;;;;-0.18;52.91;95115.72;5074755;28;20195;-65
2021/12/24 01:16:17;;;;;;;19.77;17.85;;;;;;;-0.19;52.95;95119.50;5074721;28;20190;-65
2021/12/24 01:18:53;;;;;;;19.33;17.63;;;;;;;-0.16;53.49;95121.66;5074708;28;20261;-65
2021/12/24 01:21:33;;;;;;;20.08;18.25;;;;;;;-0.17;53.77;95111.91;5074303;28;20185;-65
2021/12/24 01:24:00;;;;;;;19.55;17.80;;;;;;;-0.17;53.72;95103.78;5074533;28;20192;-65
2021/12/24 01:26:36;;;;;;;20.98;18.92;;;;;;;-0.18;53.89;95082.34;5073294;28;20232;-65
2021/12/24 01:29:33;;;;;;;20.58;18.58;;;;;;;-0.23;53.93;95104.09;5074448;28;20215;-65
2021/12/24 01:40:22;;;;;;;21.33;19.33;;;;;;;-0.36;54.41;95081.97;5077696;28;20169;-65
2021/12/24 01:42:49;;;;;;;24.40;22.02;;;;;;;-0.37;54.30;95080.34;5077011;28;20198;-65
2021/12/24 01:45:21;;;;;;;24.05;21.65;;;;;;;-0.35;53.92;95083.59;5077770;28;20216;-65
2021/12/24 01:47:48;;;;;;;22.77;20.48;;;;;;;-0.33;53.57;95088.72;5076964;28;20313;-65
2021/12/24 01:50:16;;;;;;;25.38;21.35;;;;;;;-0.36;54.67;95092.03;5077724;28;20215;-65
2021/12/24 01:52:43;;;;;;;26.27;23.67;;;;;;;-0.34;54.45;95092.53;5077766;28;20201;-65
2021/12/24 01:55:11;;;;;;;27.90;25.20;;;;;;;-0.41;55.17;95089.34;5077394;28;20178;-65
2021/12/24 01:57:38;;;;;;;28.52;25.70;;;;;;;-0.46;56.04;95082.06;5077162;28;20711;-65
2021/12/24 02:00:06;;;;;;;30.27;27.30;;;;;;;-0.47;56.28;95080.44;5077357;28;20254;-65
2021/12/24 02:02:35;;;;;;;29.50;26.40;;;;;;;-0.47;56.06;95071.47;5077564;28;20250;-65
2021/12/24 02:05:01;;;;;;;29.92;27.02;;;;;;;-0.51;55.98;95057.69;5110435;28;20200;-65
2021/12/24 02:07:28;;;;;;;28.17;25.27;;;;;;;-0.47;55.47;95060.66;5077583;28;20185;-65
2021/12/24 02:09:55;;;;;;;26.90;23.98;;;;;;;-0.52;56.15;95065.03;5076391;28;20653;-65
2021/12/24 02:12:24;;;;;;;28.60;25.77;;;;;;;-0.51;56.12;95047.69;5077043;28;20209;-65
2021/12/24 02:14:54;;;;;;;32.30;29.10;;;;;;;-0.49;56.20;95042.78;5077142;28;20173;-65
2021/12/24 02:28:38;;;;;;;39.45;35.00;;;;;;;-0.57;56.08;95010.09;5066395;28;20205;-65
2021/12/24 02:31:06;;;;;;;39.05;35.05;;;;;;;-0.51;56.44;95023.31;5076107;28;20295;-65
2021/12/24 02:33:33;;;;;;;36.90;33.20;;;;;;;-0.52;55.78;95012.72;5076926;28;20193;-65
2021/12/24 02:36:01;;;;;;;36.92;33.10;;;;;;;-0.51;56.17;94998.09;5076904;28;20203;-65
2021/12/24 02:38:28;;;;;;;36.00;32.13;;;;;;;-0.45;56.18;94998.88;5076903;28;20185;-65
2021/12/24 02:40:55;;;;;;;32.75;29.42;;;;;;;-0.45;55.12;94999.66;5075619;28;20637;-65
2021/12/24 02:43:24;;;;;;;32.42;29.13;;;;;;;-0.51;54.89;94993.50;5076764;28;20191;-65
2021/12/24 02:45:53;;;;;;;29.88;26.92;;;;;;;-0.52;54.85;94994.56;5076753;28;20177;-65
2021/12/24 02:48:58;;;;;;;28.17;25.38;;;;;;;-0.46;55.11;95005.38;5075571;28;20193;-65
2021/12/24 02:54:13;;;;;;;32.72;29.42;;;;;;;-0.53;54.57;94986.75;5075359;28;20193;-65
2021/12/24 02:56:46;;;;;;;32.05;28.80;;;;;;;-0.51;55.51;94966.41;5076498;28;20190;-65
2021/12/24 02:59:14;;;;;;;33.90;30.42;;;;;;;-0.54;55.42;94964.25;5076205;28;20181;-65
2021/12/24 03:01:43;;;;;;;34.03;30.52;;;;;;;-0.55;55.55;94972.66;5075713;28;20231;-65
2021/12/24 03:04:11;;;;;;;37.60;33.75;;;;;;;-0.57;56.07;94972.97;5075391;28;20219;-65
2021/12/24 03:06:41;;;;;;;36.85;33.03;;;;;;;-0.66;56.64;94974.66;5075086;28;20211;-65
2021/12/24 03:09:10;;;;;;;36.72;32.95;;;;;;;-0.71;56.74;94974.72;5074979;28;20220;-65
2021/12/24 03:11:38;;;;;;;42.85;38.50;;;;;;;-0.77;57.17;94978.53;5075929;28;20181;-65
2021/12/24 03:14:05;;;;;;;41.50;37.20;;;;;;;-0.78;57.10;94947.13;5075736;28;20204;-65
2021/12/24 03:16:33;;;;;;;38.00;34.05;;;;;;;-0.80;57.27;94944.72;5075396;28;20201;-65
2021/12/24 03:19:00;;;;;;;38.25;34.15;;;;;;;-0.80;56.87;94968.28;5075006;28;20193;-65
2021/12/24 03:21:31;;;;;;;39.15;35.25;;;;;;;-0.80;57.39;94970.97;5076230;28;20181;-65
2021/12/24 03:26:46;;;;;;;39.17;35.17;;;;;;;-0.78;57.12;94966.91;5075887;28;20193;-65
2021/12/24 03:29:15;;;;;;;37.55;33.65;;;;;;;-0.82;57.61;94960.44;5074819;28;20228;-65
2021/12/24 03:31:42;;;;;;;42.22;37.92;;;;;;;-0.84;57.69;94961.81;5075554;28;20246;-65
2021/12/24 03:34:12;;;;;;;39.72;35.65;;;;;;;-0.85;58.21;94957.50;5075834;28;20177;-65
2021/12/24 03:36:39;;;;;;;40.25;36.35;;;;;;;-0.86;58.03;94955.88;5074853;28;20201;-65
2021/12/24 03:39:09;;;;;;;38.83;34.75;;;;;;;-0.93;57.97;94961.63;5075667;28;20185;-65
2021/12/24 03:41:36;;;;;;;36.65;32.88;;;;;;;-0.93;57.89;94942.66;5075307;28;20193;-65
2021/12/24 03:44:03;;;;;;;34.97;31.55;;;;;;;-0.88;57.44;94966.19;5075596;28;20178;-65
2021/12/24 03:46:37;;;;;;;31.90;28.50;;;;;;;-0.78;57.29;94939.00;5074748;28;20197;-65
2021/12/24 03:49:14;;;;;;;33.28;29.88;;;;;;;-0.74;57.20;94946.28;5074588;28;20250;-65
2021/12/24 03:51:48;;;;;;;34.03;30.40;;;;;;;-0.76;57.39;94943.06;5074602;28;20216;-65
2021/12/24 03:57:00;;;;;;;34.60;31.10;;;;;;;-0.81;57.04;94934.16;5074820;28;20181;-65
2021/12/24 03:59:27;;;;;;;34.90;31.27;;;;;;;-0.86;57.42;94932.31;5074443;28;20197;-65
2021/12/24 04:01:54;;;;;;;36.35;32.65;;;;;;;-0.91;57.93;94931.53;5075425;28;20185;-65
2021/12/24 04:04:21;;;;;;;35.10;31.50;;;;;;;-0.94;58.75;94913.16;5075345;28;20196;-65
2021/12/24 04:06:48;;;;;;;34.78;31.23;;;;;;;-0.95;58.29;94923.19;5075087;28;20181;-65
2021/12/24 04:09:16;;;;;;;35.15;31.65;;;;;;;-0.94;58.02;94932.94;5073966;28;20610;-65
2021/12/24 04:11:43;;;;;;;37.17;33.35;;;;;;;-0.93;57.47;94937.25;5074529;28;20197;-65
2021/12/24 04:14:10;;;;;;;36.97;33.17;;;;;;;-0.96;57.52;94926.97;5075201;28;20284;-65
2021/12/24 04:16:37;;;;;;;39.13;35.13;;;;;;;-1.01;58.28;94925.13;5075173;28;20193;-65
2021/12/24 04:19:22;;;;;;;40.58;36.53;;;;;;;-1.01;57.93;94933.25;5074790;28;20196;-65
2021/12/24 04:24:53;;;;;;;46.40;41.60;;;;;;;-1.12;58.69;94937.13;5074562;28;20264;-65
2021/12/24 04:27:22;;;;;;;44.90;40.20;;;;;;;-1.12;58.92;94936.34;5074764;28;20216;-65
2021/12/24 04:29:52;;;;;;;47.03;42.22;;;;;;;-1.16;58.32;94940.66;5074341;28;20311;-65
2021/12/24 04:32:22;;;;;;;46.97;42.15;;;;;;;-1.14;58.66;94936.59;5074933;28;20545;-65
2021/12/24 04:34:51;;;;;;;45.78;41.08;;;;;;;-1.14;58.18;94916.84;5074101;28;20200;-65
2021/12/24 04:51:15;;;;;;;47.40;42.85;;;;;;;-1.14;58.47;94938.50;5074369;28;20300;-65
2021/12/24 05:02:27;;;;;;;44.42;40.17;;;;;;;-1.12;58.68;94949.88;5074478;28;20169;-65
2021/12/24 05:05:01;;;;;;;44.03;39.72;;;;;;;-1.09;58.65;94931.16;5074465;28;20276;-65
2021/12/24 05:07:59;;;;;;;36.65;32.97;;;;;;;-1.08;58.26;94943.59;5075293;28;20197;-65
2021/12/24 05:10:30;;;;;;;37.10;33.60;;;;;;;-1.11;59.02;94929.81;5078146;28;20294;-65
2021/12/24 05:12:58;;;;;;;46.33;41.78;;;;;;;-1.17;58.64;94926.34;5078118;28;20563;-65
2021/12/24 05:15:27;;;;;;;47.90;43.38;;;;;;;-1.16;59.49;94952.31;5078516;28;20197;-65
2021/12/24 05:18:08;;;;;;;42.75;38.53;;;;;;;-1.11;58.92;94933.34;5078387;28;20197;-65
2021/12/24 05:23:20;;;;;;;35.88;32.53;;;;;;;-1.12;58.29;94936.34;5077970;28;20177;-65
2021/12/24 05:25:47;;;;;;;35.47;31.83;;;;;;;-1.14;59.07;94928.47;5078137;28;20233;-65
2021/12/24 05:28:17;;;;;;;36.15;32.60;;;;;;;-1.09;59.40;94933.03;5078287;28;20197;-65
2021/12/24 05:30:44;;;;;;;35.38;31.77;;;;;;;-1.05;59.14;94945.75;5077413;28;20221;-65
2021/12/24 05:33:14;;;;;;;44.03;39.60;;;;;;;-1.05;59.41;94942.22;5077149;28;20201;-65
2021/12/24 05:35:41;;;;;;;41.03;37.03;;;;;;;-1.13;59.81;94935.50;5077812;28;20211;-65
2021/12/24 05:38:08;;;;;;;42.25;38.08;;;;;;;-1.18;59.23;94926.63;5077861;28;20204;-65
2021/12/24 05:40:35;;;;;;;38.58;34.58;;;;;;;-1.13;59.36;94934.69;5077753;28;20185;-65
2021/12/24 05:43:02;;;;;;;40.53;36.38;;;;;;;-1.11;59.40;94938.75;5077601;28;20186;-65
2021/12/24 05:45:31;;;;;;;38.30;34.70;;;;;;;-1.22;59.65;94956.97;5077253;28;20208;-65
2021/12/24 05:47:58;;;;;;;36.53;32.97;;;;;;;-1.15;59.32;94939.59;5077317;28;20196;-65
2021/12/24 05:50:24;;;;;;;36.17;32.70;;;;;;;-1.15;59.56;94902.50;5077779;28;20212;-65
2021/12/24 05:52:51;;;;;;;40.65;36.65;;;;;;;-1.06;59.26;94916.22;5076907;28;20197;-65
2021/12/24 05:55:18;;;;;;;38.75;34.75;;;;;;;-1.07;59.46;94912.72;5077712;28;20208;-65
2021/12/24 05:57:46;;;;;;;35.83;32.22;;;;;;;-1.07;59.73;94911.91;5077134;28;20201;-65
2021/12/24 06:00:14;;;;;;;35.42;31.92;;;;;;;-1.12;59.32;94901.16;5076727;28;20185;-65
2021/12/24 06:02:42;;;;;;;32.30;29.17;;;;;;;-1.16;59.37;94892.78;5077365;28;20191;-65
2021/12/24 06:05:09;;;;;;;37.25;33.45;;;;;;;-1.05;59.56;94909.75;5076562;28;20620;-65
2021/12/24 06:07:36;;;;;;;36.40;32.88;;;;;;;-1.11;59.90;94884.59;5077483;28;20211;-65
2021/12/24 06:10:04;;;;;;;33.08;29.70;;;;;;;-1.06;59.66;94913.53;5077246;28;20215;-65
2021/12/24 06:12:31;;;;;;;32.65;29.45;;;;;;;-0.99;60.03;94903.97;5077390;28;20181;-65
2021/12/24 06:15:03;;;;;;;32.58;29.38;;;;;;;-0.95;59.41;94895.28;5076410;28;20197;-65
2021/12/24 06:17:30;;;;;;;36.40;32.83;;;;;;;-0.96;59.31;94918.88;5077090;28;20208;-65
2021/12/24 06:19:58;;;;;;;41.78;37.85;;;;;;;-0.95;60.14;94909.63;5077004;28;20185;-65
2021/12/24 06:22:25;;;;;;;38.28;34.58;;;;;;;-0.90;58.81;94912.31;5076094;28;20205;-65
2021/12/24 06:24:52;;;;;;;34.75;31.15;;;;;;;-0.84;58.87;94904.94;5077075;28;20233;-65
2021/12/24 06:27:19;;;;;;;37.28;33.67;;;;;;;-0.80;58.46;94933.06;5077113;28;20211;-65
2021/12/24 06:29:46;;;;;;;38.58;34.83;;;;;;;-0.75;58.95;94908.66;5077186;28;20191;-65
2021/12/24 06:32:12;;;;;;;56.58;50.38;;;;;;;-0.77;58.60;94917.06;5077045;28;20186;-65
2021/12/24 06:34:39;;;;;;;62.75;55.95;;;;;;;-0.70;58.79;94930.28;5077006;28;20185;-65
2021/12/24 06:37:08;;;;;;;58.78;51.92;;;;;;;-0.69;58.53;94956.28;5076030;28;20207;-65
2021/12/24 06:39:35;;;;;;;60.67;54.55;;;;;;;-0.63;59.35;94943.47;5077272;28;20186;-65
2021/12/24 06:42:03;;;;;;;60.70;54.42;;;;;;;-0.62;58.66;94953.22;5076043;28;20207;-65
2021/12/24 06:44:29;;;;;;;45.53;40.67;;;;;;;-0.63;58.07;94935.34;5076898;28;20251;-65
2021/12/24 06:46:56;;;;;;;46.65;41.85;;;;;;;-0.62;58.12;94977.59;5077144;28;20217;-65
2021/12/24 06:49:23;;;;;;;46.00;41.33;;;;;;;-0.59;58.65;94925.56;5077426;28;20197;-65
2021/12/24 06:51:50;;;;;;;36.88;32.88;;;;;;;-0.54;58.20;94929.03;5077039;28;20201;-65
2021/12/24 06:54:18;;;;;;;36.58;32.83;;;;;;;-0.45;58.18;94934.63;5076389;28;20201;-65
2021/12/24 06:56:45;;;;;;;34.45;30.95;;;;;;;-0.40;58.22;94925.63;5076806;28;20185;-65
2021/12/24 06:59:12;;;;;;;33.33;29.95;;;;;;;-0.37;58.06;94949.47;5075842;28;20538;-65
2021/12/24 07:01:39;;;;;;;31.15;27.92;;;;;;;-0.34;58.09;94938.06;5076995;28;20200;-65
2021/12/24 07:04:06;;;;;;;32.33;29.20;;;;;;;-0.37;58.24;94938.63;5076348;28;20193;-65
2021/12/24 07:06:33;;;;;;;30.73;27.63;;;;;;;-0.37;58.49;94916.94;5076190;28;20201;-65
2021/12/24 07:08:59;;;;;;;31.02;28.08;;;;;;;-0.36;58.68;94932.94;5076314;28;20185;-65
2021/12/24 07:11:27;;;;;;;29.73;26.88;;;;;;;-0.33;58.30;94926.09;5075226;28;20223;-65
2021/12/24 07:13:55;;;;;;;26.95;24.35;;;;;;;-0.24;58.00;94921.69;5075316;28;20208;-65
2021/12/24 07:16:22;;;;;;;38.30;29.25;;;;;;;-0.16;58.17;94956.28;5075192;28;20189;-65
2021/12/24 07:18:48;;;;;;;35.40;31.60;;;;;;;-0.13;58.05;94925.88;5075292;28;20544;-65
2021/12/24 07:21:15;;;;;;;34.92;29.35;;;;;;;-0.06;57.64;94923.63;5075717;28;20196;-65
2021/12/24 07:23:42;;;;;;;31.65;27.38;;;;;;;-0.03;57.43;94923.06;5074914;28;20199;-65
2021/12/24 07:26:09;;;;;;;29.50;26.40;;;;;;;-0.06;57.30;94930.97;5074956;28;20248;-65
2021/12/24 07:28:38;;;;;;;29.38;26.27;;;;;;;-0.08;57.86;94936.66;5075065;28;20212;-65
2021/12/24 07:31:04;;;;;;;26.58;23.77;;;;;;;-0.03;57.45;94938.53;5074836;28;20211;-65
2021/12/24 07:33:31;;;;;;;25.80;23.20;;;;;;;-0.02;56.77;94935.50;5075776;28;20203;-65
2021/12/24 07:35:58;;;;;;;26.75;23.85;;;;;;;0.01;56.86;94934.13;5075020;28;20204;-65
2021/12/24 07:38:25;;;;;;;24.90;22.15;;;;;;;-0.04;56.91;94912.50;5075708;28;20203;-65
2021/12/24 07:40:52;;;;;;;25.10;22.55;;;;;;;0.03;56.91;94955.53;5074493;28;20609;-65
2021/12/24 07:43:19;;;;;;;24.38;21.92;;;;;;;0.08;56.87;94912.09;5074663;28;20207;-65
2021/12/24 07:45:49;;;;;;;25.85;23.17;;;;;;;0.15;56.65;94926.91;5075815;28;20189;-65
2021/12/24 07:48:26;;;;;;;26.85;23.80;;;;;;;0.23;56.77;94928.16;5075034;28;20591;-65
2021/12/24 07:53:37;;;;;;;31.58;25.50;;;;;;;0.38;56.79;94927.16;5074943;28;20670;-65
2021/12/24 07:56:04;;;;;;;28.38;24.30;;;;;;;0.45;56.12;94935.75;5075683;28;20185;-66
2021/12/24 07:58:31;;;;;;;32.17;26.20;;;;;;;0.50;56.27;94915.88;5075520;28;20612;-65
2021/12/24 08:00:59;;;;;;;24.48;21.95;;;;;;;0.60;55.91;94926.59;5074913;28;20185;-65
2021/12/24 08:03:27;;;;;;;24.08;21.02;;;;;;;0.65;55.27;94931.94;5075546;28;20261;-65
2021/12/24 08:05:54;;;;;;;27.75;21.65;;;;;;;0.66;55.36;94909.94;5075278;28;20193;-65
2021/12/24 08:08:20;;;;;;;27.80;21.73;;;;;;;0.76;55.16;94924.44;5074930;28;20224;-65
2021/12/24 08:10:47;;;;;;;28.20;23.67;;;;;;;0.73;54.71;94939.44;5075322;28;20234;-65
2021/12/24 08:13:14;;;;;;;28.00;23.27;;;;;;;0.74;54.87;94932.09;5073993;28;20200;-65
2021/12/24 08:15:43;;;;;;;26.15;23.35;;;;;;;0.78;55.17;94912.19;5074189;28;20185;-65
2021/12/24 08:18:12;;;;;;;24.98;22.33;;;;;;;0.84;55.37;94929.22;5075003;28;20594;-66
2021/12/24 08:20:38;;;;;;;22.67;20.33;;;;;;;1.04;54.97;94925.38;5074522;28;20537;-65
2021/12/24 08:23:05;;;;;;;20.15;17.95;;;;;;;1.09;53.83;94903.56;5074790;28;20189;-65
2021/12/24 08:25:32;;;;;;;20.90;18.63;;;;;;;1.28;54.22;94898.91;5074859;28;20248;-65
2021/12/24 08:27:59;;;;;;;22.77;20.38;;;;;;;1.48;53.56;94894.19;5074392;28;20208;-65
2021/12/24 08:30:26;;;;;;;19.67;17.63;;;;;;;1.61;52.98;94887.97;5074757;28;20178;-65
2021/12/24 08:32:55;;;;;;;22.40;18.33;;;;;;;1.75;52.96;94877.13;5074788;28;20191;-65
2021/12/24 08:35:24;;;;;;;18.05;16.27;;;;;;;1.81;52.30;94881.34;5074014;28;20201;-65
2021/12/24 08:37:51;;;;;;;19.73;17.02;;;;;;;1.91;51.95;94879.22;5075017;28;20181;-65
2021/12/24 08:40:18;;;;;;;19.33;17.33;;;;;;;1.97;51.52;94858.16;5075023;28;20199;-65
2021/12/24 08:42:44;;;;;;;18.25;16.45;;;;;;;2.12;52.44;94852.41;5077267;28;20178;-65
2021/12/24 08:45:12;;;;;;;17.92;16.13;;;;;;;2.31;51.51;94846.03;5078882;28;20204;-65
2021/12/24 08:47:39;;;;;;;18.85;16.98;;;;;;;2.35;50.75;94866.88;5078677;28;20208;-65
2021/12/24 08:50:09;;;;;;;17.27;15.63;;;;;;;2.39;50.93;94856.97;5077779;28;20193;-65
2021/12/24 08:52:37;;;;;;;19.58;17.60;;;;;;;2.56;50.97;94886.28;5078977;28;20205;-65
2021/12/24 08:55:04;;;;;;;17.67;15.98;;;;;;;2.57;49.86;94879.72;5078895;28;20192;-65
2021/12/24 08:57:31;;;;;;;20.40;16.52;;;;;;;2.65;49.83;94884.47;5078899;28;20185;-65
2021/12/24 08:59:58;;;;;;;19.60;17.52;;;;;;;2.74;50.29;94870.91;5078060;28;20213;-65
2021/12/24 09:02:25;;;;;;;18.70;16.77;;;;;;;2.91;50.65;94877.63;5077861;28;20207;-65
2021/12/24 09:04:52;;;;;;;19.08;17.08;;;;;;;3.10;50.03;94870.06;5078641;28;20196;-65
2021/12/24 09:07:18;;;;;;;17.77;15.98;;;;;;;3.21;49.45;94865.97;5078366;28;20200;-65
2021/12/24 09:09:47;;;;;;;16.67;15.15;;;;;;;3.38;48.90;94865.25;5077465;28;20204;-65
2021/12/24 09:12:13;;;;;;;17.38;15.57;;;;;;;3.56;48.98;94855.25;5078503;28;20213;-65
2021/12/24 09:14:40;;;;;;;18.05;15.65;;;;;;;3.59;47.97;94854.59;5078088;28;20568;-65
2021/12/24 09:17:07;;;;;;;17.33;15.70;;;;;;;3.80;48.32;94865.78;5078221;28;20190;-65
2021/12/24 09:19:35;;;;;;;18.95;16.05;;;;;;;3.71;48.31;94846.66;5077002;28;20220;-65
2021/12/24 09:22:02;;;;;;;20.35;17.13;;;;;;;3.68;48.64;94828.19;5077916;28;20193;-65
2021/12/24 09:24:30;;;;;;;18.30;16.48;;;;;;;3.97;48.58;94851.41;5077597;28;20196;-65
2021/12/24 09:26:59;;;;;;;19.17;17.17;;;;;;;4.24;47.89;94844.88;5077186;28;20197;-65
2021/12/24 09:29:26;;;;;;;18.65;16.65;;;;;;;4.25;47.28;94828.19;5077966;28;20200;-65
2021/12/24 09:31:53;;;;;;;20.55;18.38;;;;;;;4.40;47.41;94826.13;5077847;28;20197;-65
2021/12/24 09:34:20;;;;;;;21.30;18.70;;;;;;;4.66;46.67;94834.34;5077815;28;20245;-65
2021/12/24 09:36:47;;;;;;;18.50;16.80;;;;;;;4.97;47.36;94810.34;5077096;28;20283;-65
2021/12/24 09:39:14;;;;;;;18.98;17.02;;;;;;;4.91;46.46;94810.88;5077658;28;20185;-65
2021/12/24 09:41:41;;;;;;;19.33;17.33;;;;;;;5.20;46.79;94821.91;5077451;28;20181;-65
2021/12/24 09:44:09;;;;;;;18.65;16.75;;;;;;;5.35;45.40;94795.19;5076473;28;20196;-65
2021/12/24 09:46:42;;;;;;;20.33;18.30;;;;;;;5.30;45.54;94777.00;5076787;28;20201;-65
2021/12/24 09:49:09;;;;;;;19.70;17.70;;;;;;;5.44;45.45;94793.22;5077093;28;20535;-65
2021/12/24 09:51:37;;;;;;;21.33;17.98;;;;;;;5.73;44.91;94812.41;5076721;28;20244;-65
2021/12/24 09:54:09;;;;;;;19.05;17.05;;;;;;;5.92;43.83;94809.31;5076712;28;20185;-65
2021/12/24 09:56:36;;;;;;;24.15;21.65;;;;;;;5.23;45.33;94793.13;5076566;28;20513;-65
2021/12/24 09:59:03;;;;;;;23.38;20.95;;;;;;;4.96;45.98;94761.50;5077040;28;20628;-65
2021/12/24 10:01:33;;;;;;;20.65;18.27;;;;;;;5.20;46.24;94771.91;5075908;28;20212;-65
2021/12/24 10:04:03;;;;;;;20.67;18.48;;;;;;;5.75;46.25;94784.72;5077133;28;20193;-65
2021/12/24 10:06:30;;;;;;;20.17;18.05;;;;;;;6.22;44.77;94755.34;5075851;28;20201;-65
2021/12/24 10:09:03;;;;;;;20.13;18.00;;;;;;;6.45;43.51;94768.72;5076170;28;20216;-65
2021/12/24 10:11:30;;;;;;;21.58;18.48;;;;;;;6.50;43.88;94766.59;5076918;28;20537;-65
2021/12/24 10:14:05;;;;;;;18.95;17.05;;;;;;;6.25;43.91;94743.72;5077053;28;20207;-65
2021/12/24 10:16:33;;;;;;;21.48;18.05;;;;;;;6.34;43.90;94746.38;5076899;28;20189;-65
2021/12/24 10:19:02;;;;;;;21.92;17.90;;;;;;;6.58;43.81;94756.69;5076802;28;20189;-65
2021/12/24 10:21:30;;;;;;;20.27;18.08;;;;;;;6.74;43.02;94757.66;5076738;28;20232;-65
2021/12/24 10:24:00;;;;;;;18.98;17.13;;;;;;;6.59;42.86;94741.84;5075707;28;20283;-65
2021/12/24 10:26:29;;;;;;;19.23;17.40;;;;;;;6.38;43.62;94738.31;5075347;28;20229;-65
2021/12/24 10:29:02;;;;;;;20.25;18.15;;;;;;;6.01;43.58;94738.09;5075841;28;20213;-65
2021/12/24 10:31:31;;;;;;;19.70;17.40;;;;;;;5.91;44.83;94728.28;5076800;28;20211;-65
2021/12/24 10:34:27;;;;;;;21.23;18.10;;;;;;;5.66;45.88;94719.09;5076953;28;20189;-65
2021/12/24 10:37:12;;;;;;;19.70;17.58;;;;;;;5.66;45.09;94710.06;5076633;28;20201;-65
2021/12/24 10:39:42;;;;;;;18.25;16.48;;;;;;;5.53;45.53;94711.94;5075927;28;20228;-65
2021/12/24 10:42:13;;;;;;;19.13;17.33;;;;;;;5.52;45.71;94713.06;5075795;28;20203;-65
2021/12/24 10:44:41;;;;;;;19.77;17.20;;;;;;;5.44;45.85;94725.63;5076537;28;20226;-65
2021/12/24 10:47:16;;;;;;;18.85;16.95;;;;;;;5.32;46.33;94718.13;5076165;28;20193;-65
2021/12/24 10:55:27;;;;;;;18.15;16.42;;;;;;;5.47;46.29;94691.34;5076455;28;20208;-65
2021/12/24 10:57:56;;;;;;;10.68;9.73;;;;;;;5.58;47.99;94681.63;5075999;28;20201;-65
2021/12/24 11:00:25;;;;;;;7.05;6.35;;;;;;;5.99;49.36;94685.59;5076038;28;20209;-64
2021/12/24 11:02:54;;;;;;;4.03;3.45;;;;;;;6.41;49.28;94680.13;5075304;28;20201;-64
2021/12/24 11:05:34;;;;;;;8.15;3.97;;;;;;;6.91;48.27;94671.72;5075417;28;20242;-65
2021/12/24 11:08:03;;;;;;;3.50;3.20;;;;;;;7.15;47.88;94668.25;5075725;28;20208;-65
2021/12/24 11:10:31;;;;;;;3.53;3.22;;;;;;;7.37;47.39;94658.78;5075754;28;20193;-65
2021/12/24 11:13:03;;;;;;;3.10;2.80;;;;;;;7.54;46.94;94660.47;5075387;28;20216;-64
2021/12/24 11:15:32;;;;;;;2.90;2.70;;;;;;;7.84;46.33;94672.03;5076344;28;20193;-64
2021/12/24 11:18:01;;;;;;;3.65;3.33;;;;;;;8.16;45.40;94661.97;5076210;28;20190;-64
2021/12/24 11:20:30;;;;;;;3.40;3.10;;;;;;;8.58;45.12;94652.63;5076169;28;20196;-65
2021/12/24 11:23:00;;;;;;;3.13;2.92;;;;;;;9.10;43.88;94651.66;5076250;28;20213;-65
2021/12/24 11:25:29;;;;;;;3.28;2.92;;;;;;;9.62;42.62;94656.91;5075072;28;20238;-65
2021/12/24 11:27:55;;;;;;;3.17;2.90;;;;;;;10.21;41.62;94657.84;5075301;28;20204;-65
2021/12/24 11:30:24;;;;;;;3.13;2.83;;;;;;;10.50;40.89;94634.47;5074856;28;20214;-65
2021/12/24 11:32:50;;;;;;;3.25;2.95;;;;;;;11.26;39.98;94628.41;5074628;28;20220;-65
2021/12/24 11:35:18;;;;;;;3.88;2.90;;;;;;;12.12;37.45;94638.84;5074863;28;20219;-65
2021/12/24 11:37:48;;;;;;;3.05;2.72;;;;;;;12.53;36.92;94630.72;5075020;28;20196;-65
2021/12/24 11:40:16;;;;;;;4.65;2.70;;;;;;;13.20;35.22;94627.13;5074994;28;20207;-65
2021/12/24 11:42:44;;;;;;;3.28;2.97;;;;;;;14.56;32.45;94628.19;5074772;28;20197;-65
2021/12/24 11:45:11;;;;;;;3.45;3.10;;;;;;;14.87;31.52;94635.88;5074746;28;20203;-65
2021/12/24 11:47:39;;;;;;;3.33;2.92;;;;;;;15.15;31.49;94618.50;5074725;28;20194;-65
2021/12/24 11:50:07;;;;;;;3.35;3.08;;;;;;;14.97;31.42;94625.19;5074274;28;20204;-65
2021/12/24 11:52:34;;;;;;;3.58;3.28;;;;;;;14.98;32.19;94624.00;5075486;28;20200;-65
2021/12/24 11:55:03;;;;;;;3.20;3.00;;;;;;;15.43;30.77;94622.50;5074560;28;20201;-65
2021/12/24 11:57:30;;;;;;;2.97;2.78;;;;;;;16.42;29.84;94615.34;5075481;28;20197;-65
2021/12/24 11:59:57;;;;;;;3.47;3.17;;;;;;;17.30;28.11;94615.41;5075165;28;20185;-65
2021/12/24 12:02:40;;;;;;;3.15;2.83;;;;;;;17.14;27.83;94615.09;5075484;28;20207;-65
2021/12/24 12:05:12;;;;;;;3.60;3.30;;;;;;;16.25;28.99;94619.75;5074555;28;20264;-65
2021/12/24 12:07:39;;;;;;;3.58;3.28;;;;;;;15.92;30.34;94614.63;5075339;28;20216;-65
2021/12/24 12:10:08;;;;;;;3.38;3.08;;;;;;;16.65;29.50;94614.88;5075208;28;20174;-65
2021/12/24 12:12:35;;;;;;;3.88;3.58;;;;;;;17.67;27.62;94603.59;5075254;28;20637;-65
2021/12/24 12:15:26;;;;;;;3.60;3.30;;;;;;;18.25;26.52;94609.53;5074270;28;20207;-65
2021/12/24 12:17:55;;;;;;;3.33;3.13;;;;;;;17.06;27.50;94631.06;5071436;28;20306;-65
2021/12/24 12:20:43;;;;;;;3.15;2.95;;;;;;;15.27;30.26;94613.75;5076500;28;20629;-65
2021/12/24 12:23:16;;;;;;;3.60;3.30;;;;;;;14.23;31.65;94610.53;5075106;28;20191;-65
2021/12/24 12:25:44;;;;;;;3.22;2.95;;;;;;;13.13;33.71;94616.78;5075022;28;20264;-65
2021/12/24 12:28:15;;;;;;;4.75;3.20;;;;;;;12.57;34.71;94605.88;5074605;28;20200;-65
2021/12/24 12:30:50;;;;;;;4.28;3.88;;;;;;;12.03;35.99;94597.69;5074917;28;20227;-65
2021/12/24 12:33:17;;;;;;;3.88;3.00;;;;;;;11.66;36.54;94616.84;5075148;28;20215;-64
2021/12/24 12:35:47;;;;;;;3.40;3.10;;;;;;;11.36;37.10;94602.91;5074436;28;20207;-65
2021/12/24 12:38:39;;;;;;;3.53;3.22;;;;;;;10.99;38.06;94599.91;5074999;28;20193;-65
2021/12/24 12:41:32;;;;;;;3.50;3.20;;;;;;;10.59;38.47;94587.34;5060482;28;20216;-65
2021/12/24 12:44:01;;;;;;;3.55;3.10;;;;;;;10.36;39.60;94585.34;5070031;28;20231;-65
2021/12/24 12:46:32;;;;;;;3.88;3.40;;;;;;;10.24;39.61;94585.47;5074982;28;20185;-65
2021/12/24 12:49:00;;;;;;;3.50;3.17;;;;;;;10.14;39.63;94577.78;5074137;28;20624;-65
2021/12/24 12:51:53;;;;;;;3.95;3.65;;;;;;;9.99;40.21;94570.38;5074489;28;20192;-65